Time;durP1;ratioP1;P1;durP2;ratioP2;P2;SDS_P1;SDS_P2;PMS_P1;PMS_P2;Temp;Humidity;BMP_temperature;BMP_pressure;BME280_temperature;BME280_humidity;BME280_pressure;Samples;Min_cycle;Max_cycle;Signal;HPM_P1;HPM_P2
2022/01/02 00:02:12;;;;;;;12.35;6.38;;;;;;;;;;5113586;28;20086;-79
2022/01/02 00:04:42;;;;;;;10.23;6.20;;;;;;;;;;5112320;28;20384;-79
2022/01/02 00:07:09;;;;;;;11.32;6.80;;;;;;;;;;5113495;28;20481;-77
2022/01/02 00:09:36;;;;;;;12.95;7.05;;;;;;;;;;5112321;28;20050;-80
2022/01/02 00:12:05;;;;;;;10.52;6.72;;;;;;;;;;5113494;28;20090;-79
2022/01/02 00:14:36;;;;;;;13.43;6.55;;;;;;;;;;5095491;28;20043;-79
2022/01/02 00:17:03;;;;;;;12.68;7.15;;;;;;;;;;5112221;28;20085;-79
2022/01/02 00:19:31;;;;;;;11.88;6.35;;;;;;;;;;5113530;28;20047;-79
2022/01/02 00:22:02;;;;;;;12.18;7.40;;;;;;;;;;5112681;28;20177;-80
2022/01/02 00:24:29;;;;;;;14.35;6.80;;;;;;;;;;5113649;28;20047;-79
2022/01/02 00:26:57;;;;;;;15.57;6.72;;;;;;;;;;5113559;28;20043;-79
2022/01/02 00:29:23;;;;;;;14.18;7.50;;;;;;;;;;5112881;28;20091;-79
2022/01/02 00:31:50;;;;;;;11.68;7.20;;;;;;;;;;5112956;28;20047;-78
2022/01/02 00:34:16;;;;;;;12.05;6.57;;;;;;;;;;5113434;28;20130;-80
2022/01/02 00:36:42;;;;;;;12.95;7.25;;;;;;;;;;5112232;28;20408;-79
2022/01/02 00:39:09;;;;;;;14.60;7.45;;;;;;;;;;5112192;28;20035;-80
2022/01/02 00:41:42;;;;;;;12.60;6.80;;;;;;;;;;5095596;28;20127;-79
2022/01/02 00:44:22;;;;;;;11.93;6.82;;;;;;;;;;5113578;28;20049;-79
2022/01/02 00:46:53;;;;;;;13.27;6.63;;;;;;;;;;5113182;28;20097;-79
2022/01/02 00:49:24;;;;;;;11.85;7.03;;;;;;;;;;5112854;28;20404;-81
2022/01/02 00:51:53;;;;;;;13.73;7.22;;;;;;;;;;5113368;28;20041;-80
2022/01/02 00:54:22;;;;;;;12.35;7.45;;;;;;;;;;5112157;28;20057;-80
2022/01/02 00:56:52;;;;;;;15.50;7.65;;;;;;;;;;5112057;28;20045;-79
2022/01/02 00:59:28;;;;;;;14.13;7.18;;;;;;;;;;5117827;28;20051;-81
2022/01/02 01:02:04;;;;;;;12.02;7.18;;;;;;;;;;5115295;28;20079;-79
2022/01/02 01:04:31;;;;;;;14.10;7.20;;;;;;;;;;5115866;28;20495;-80
2022/01/02 01:07:00;;;;;;;14.40;7.13;;;;;;;;;;5133307;28;20499;-79
2022/01/02 01:09:27;;;;;;;12.48;7.00;;;;;;;;;;5133723;28;20050;-80
2022/01/02 01:11:54;;;;;;;14.02;7.03;;;;;;;;;;5134254;27;20394;-80
2022/01/02 01:14:20;;;;;;;12.75;7.30;;;;;;;;;;5119213;27;20456;-81
2022/01/02 01:16:46;;;;;;;13.80;7.30;;;;;;;;;;5137571;27;20052;-80
2022/01/02 01:19:12;;;;;;;15.77;7.72;;;;;;;;;;5137256;27;20035;-81
2022/01/02 01:21:38;;;;;;;15.77;7.47;;;;;;;;;;5137517;27;20460;-80
2022/01/02 01:24:04;;;;;;;11.30;7.00;;;;;;;;;;5118697;27;20122;-81
2022/01/02 01:26:31;;;;;;;13.55;7.97;;;;;;;;;;5102055;27;20408;-79
2022/01/02 01:28:57;;;;;;;13.32;7.50;;;;;;;;;;5118385;27;20361;-80
2022/01/02 01:31:23;;;;;;;14.00;7.50;;;;;;;;;;5119209;27;20144;-80
2022/01/02 01:33:49;;;;;;;17.95;7.97;;;;;;;;;;5119258;27;20415;-80
2022/01/02 01:36:16;;;;;;;16.45;8.30;;;;;;;;;;5137578;27;20125;-81
2022/01/02 01:38:42;;;;;;;13.90;7.90;;;;;;;;;;5118945;27;20058;-79
2022/01/02 01:41:14;;;;;;;16.02;7.72;;;;;;;;;;5118660;27;20446;-79
2022/01/02 01:43:53;;;;;;;14.15;8.05;;;;;;;;;;5118791;27;20043;-81
2022/01/02 01:46:19;;;;;;;13.23;7.68;;;;;;;;;;5120594;27;20042;-80
2022/01/02 01:48:55;;;;;;;14.95;8.48;;;;;;;;;;5118748;27;20101;-80
2022/01/02 01:51:21;;;;;;;15.30;7.88;;;;;;;;;;5136620;27;20039;-80
2022/01/02 01:53:47;;;;;;;15.40;7.95;;;;;;;;;;5118237;27;20093;-80
2022/01/02 01:56:13;;;;;;;14.35;7.80;;;;;;;;;;5136665;27;20036;-81
2022/01/02 01:58:39;;;;;;;14.68;7.45;;;;;;;;;;5136287;27;20480;-80
2022/01/02 02:01:06;;;;;;;14.93;7.78;;;;;;;;;;5097561;28;20047;-82
2022/01/02 02:03:32;;;;;;;14.10;7.72;;;;;;;;;;5115761;28;20040;-81
2022/01/02 02:05:58;;;;;;;15.07;8.00;;;;;;;;;;5098086;28;20073;-80
2022/01/02 02:08:26;;;;;;;13.90;8.30;;;;;;;;;;5115604;28;20044;-81
2022/01/02 02:10:56;;;;;;;15.85;8.00;;;;;;;;;;5114795;28;20045;-80
2022/01/02 02:13:22;;;;;;;13.23;7.72;;;;;;;;;;5115587;28;20044;-80
2022/01/02 02:15:49;;;;;;;15.85;7.47;;;;;;;;;;5114641;28;20043;-80
2022/01/02 02:18:16;;;;;;;16.67;8.00;;;;;;;;;;5114650;28;20180;-79
2022/01/02 02:20:42;;;;;;;12.98;7.28;;;;;;;;;;5114303;28;20135;-79
2022/01/02 02:23:09;;;;;;;15.30;7.45;;;;;;;;;;5114013;28;20102;-79
2022/01/02 02:25:37;;;;;;;16.50;8.43;;;;;;;;;;5114675;28;20082;-79
2022/01/02 02:28:08;;;;;;;20.20;7.80;;;;;;;;;;5114321;28;20032;-81
2022/01/02 02:30:35;;;;;;;13.40;7.63;;;;;;;;;;5114135;28;20090;-80
2022/01/02 02:33:02;;;;;;;15.00;7.53;;;;;;;;;;5115272;28;20040;-80
2022/01/02 02:35:29;;;;;;;17.38;7.82;;;;;;;;;;5115188;28;20036;-81
2022/01/02 02:37:55;;;;;;;17.90;7.90;;;;;;;;;;5115309;28;20076;-80
2022/01/02 02:40:23;;;;;;;16.90;8.05;;;;;;;;;;5115309;28;20082;-80
2022/01/02 02:42:53;;;;;;;15.80;7.75;;;;;;;;;;5115121;28;20040;-80
2022/01/02 02:51:28;;;;;;;19.80;8.35;;;;;;;;;;5072163;28;20113;-79
2022/01/02 02:53:55;;;;;;;17.60;8.25;;;;;;;;;;5104925;28;20091;-80
2022/01/02 02:56:29;;;;;;;16.33;8.35;;;;;;;;;;5114603;28;20219;-78
2022/01/02 02:58:56;;;;;;;15.43;8.30;;;;;;;;;;5114853;27;20384;-80
2022/01/02 03:01:23;;;;;;;15.90;7.93;;;;;;;;;;5135227;27;20046;-80
2022/01/02 03:03:50;;;;;;;17.40;8.20;;;;;;;;;;5100104;27;20089;-79
2022/01/02 03:06:16;;;;;;;16.98;7.70;;;;;;;;;;5116560;27;20049;-79
2022/01/02 03:08:44;;;;;;;14.88;7.80;;;;;;;;;;5099704;27;20083;-79
2022/01/02 03:11:14;;;;;;;18.02;8.30;;;;;;;;;;5116976;27;20057;-80
2022/01/02 03:13:41;;;;;;;16.48;8.38;;;;;;;;;;5135328;27;20090;-80
2022/01/02 03:16:07;;;;;;;14.30;8.10;;;;;;;;;;5116561;27;20046;-80
2022/01/02 03:18:33;;;;;;;18.00;8.20;;;;;;;;;;5116572;27;20043;-79
2022/01/02 03:21:00;;;;;;;19.02;8.52;;;;;;;;;;5135216;27;20072;-79
2022/01/02 03:23:26;;;;;;;16.23;8.50;;;;;;;;;;5116558;27;20107;-80
2022/01/02 03:25:52;;;;;;;17.08;8.80;;;;;;;;;;5116605;27;20177;-80
2022/01/02 03:28:18;;;;;;;17.48;8.10;;;;;;;;;;5117139;27;20122;-80
2022/01/02 03:30:44;;;;;;;21.10;8.80;;;;;;;;;;5135155;27;20395;-80
2022/01/02 03:33:10;;;;;;;15.25;8.20;;;;;;;;;;5116740;27;20114;-79
2022/01/02 03:35:36;;;;;;;13.70;8.23;;;;;;;;;;5134071;27;20043;-79
2022/01/02 03:38:05;;;;;;;22.48;8.57;;;;;;;;;;5116143;27;20055;-81
2022/01/02 03:40:31;;;;;;;16.20;7.65;;;;;;;;;;5134442;27;20432;-80
2022/01/02 03:42:57;;;;;;;14.10;7.72;;;;;;;;;;5116545;27;20097;-79
2022/01/02 03:45:23;;;;;;;15.75;7.93;;;;;;;;;;5099038;27;20161;-79
2022/01/02 03:47:50;;;;;;;19.27;8.48;;;;;;;;;;5134497;27;20047;-80
2022/01/02 03:50:16;;;;;;;15.82;7.80;;;;;;;;;;5116246;27;20395;-80
2022/01/02 03:52:42;;;;;;;18.52;8.48;;;;;;;;;;5134185;27;20054;-79
2022/01/02 03:55:08;;;;;;;16.42;8.57;;;;;;;;;;5116162;27;20066;-79
2022/01/02 03:57:35;;;;;;;17.25;7.85;;;;;;;;;;5115684;27;20479;-79
2022/01/02 04:00:01;;;;;;;18.33;8.07;;;;;;;;;;5134235;27;20055;-80
2022/01/02 04:02:27;;;;;;;15.93;7.38;;;;;;;;;;5133927;27;20059;-79
2022/01/02 04:04:53;;;;;;;16.92;8.02;;;;;;;;;;5115634;27;20047;-80
2022/01/02 04:07:19;;;;;;;18.77;7.78;;;;;;;;;;5115668;27;20078;-81
2022/01/02 04:09:45;;;;;;;18.27;7.85;;;;;;;;;;5133932;27;20501;-80
2022/01/02 04:12:12;;;;;;;20.15;7.43;;;;;;;;;;5133985;27;20046;-80
2022/01/02 04:14:38;;;;;;;20.73;8.00;;;;;;;;;;5115714;27;20499;-79
2022/01/02 04:17:04;;;;;;;18.83;7.78;;;;;;;;;;5115239;27;20126;-80
2022/01/02 04:19:30;;;;;;;15.27;7.55;;;;;;;;;;5115212;27;20534;-80
2022/01/02 04:21:56;;;;;;;17.23;8.05;;;;;;;;;;5115973;27;20067;-80
2022/01/02 04:24:22;;;;;;;17.80;7.63;;;;;;;;;;5133980;27;20054;-81
2022/01/02 04:26:48;;;;;;;17.90;7.93;;;;;;;;;;5115868;27;20042;-80
2022/01/02 04:29:14;;;;;;;17.70;7.85;;;;;;;;;;5115505;27;20050;-80
2022/01/02 04:31:40;;;;;;;15.77;7.25;;;;;;;;;;5133818;27;20050;-79
2022/01/02 04:34:07;;;;;;;18.30;7.80;;;;;;;;;;5115279;28;20126;-80
2022/01/02 04:36:33;;;;;;;21.20;7.63;;;;;;;;;;5133673;27;20040;-80
2022/01/02 04:38:59;;;;;;;20.05;8.05;;;;;;;;;;5133445;27;20039;-79
2022/01/02 04:41:25;;;;;;;16.83;7.63;;;;;;;;;;5133530;28;20116;-79
2022/01/02 04:43:51;;;;;;;22.42;8.18;;;;;;;;;;5115612;28;20039;-79
2022/01/02 04:46:17;;;;;;;17.70;7.55;;;;;;;;;;5133568;27;20082;-81
2022/01/02 04:48:43;;;;;;;15.38;6.93;;;;;;;;;;5119840;27;20460;-79
2022/01/02 04:51:09;;;;;;;18.48;6.82;;;;;;;;;;5119233;27;20483;-80
2022/01/02 04:53:41;;;;;;;14.05;7.15;;;;;;;;;;5119536;27;20050;-79
2022/01/02 04:56:08;;;;;;;16.20;7.10;;;;;;;;;;5137721;27;20478;-79
2022/01/02 04:58:34;;;;;;;15.25;6.78;;;;;;;;;;5102410;27;20126;-80
2022/01/02 05:01:00;;;;;;;14.85;6.93;;;;;;;;;;5137502;27;20051;-79
2022/01/02 05:03:26;;;;;;;19.70;8.07;;;;;;;;;;5137541;27;20051;-80
2022/01/02 05:05:52;;;;;;;17.70;7.32;;;;;;;;;;5137858;27;20055;-79
2022/01/02 05:08:18;;;;;;;18.83;7.28;;;;;;;;;;5137709;27;20104;-80
2022/01/02 05:10:44;;;;;;;17.88;6.63;;;;;;;;;;5137577;27;20047;-80
2022/01/02 05:13:10;;;;;;;17.83;7.05;;;;;;;;;;5102463;27;20503;-80
2022/01/02 05:15:36;;;;;;;17.20;7.15;;;;;;;;;;5137680;27;20078;-80
2022/01/02 05:18:03;;;;;;;20.50;7.10;;;;;;;;;;5137532;27;20092;-80
2022/01/02 05:20:29;;;;;;;20.52;7.00;;;;;;;;;;5119533;27;20039;-79
2022/01/02 05:22:55;;;;;;;15.98;6.80;;;;;;;;;;5119146;27;20122;-79
2022/01/02 05:25:21;;;;;;;20.38;7.20;;;;;;;;;;5137643;27;20140;-79
2022/01/02 05:27:47;;;;;;;15.15;6.65;;;;;;;;;;5119565;27;20053;-79
2022/01/02 05:30:13;;;;;;;18.00;6.97;;;;;;;;;;5136972;27;20042;-79
2022/01/02 05:32:39;;;;;;;21.48;7.57;;;;;;;;;;5118910;27;20039;-80
2022/01/02 05:35:06;;;;;;;24.02;7.28;;;;;;;;;;5137448;27;20049;-79
2022/01/02 05:37:32;;;;;;;17.35;7.20;;;;;;;;;;5137174;27;20046;-79
2022/01/02 05:39:58;;;;;;;19.05;6.57;;;;;;;;;;5118385;27;20453;-80
2022/01/02 05:42:24;;;;;;;20.88;7.05;;;;;;;;;;5119577;27;20085;-79
2022/01/02 05:44:50;;;;;;;15.77;6.38;;;;;;;;;;5119126;27;20039;-79
2022/01/02 05:47:16;;;;;;;18.63;6.97;;;;;;;;;;5137254;27;20054;-80
2022/01/02 05:49:42;;;;;;;19.55;6.70;;;;;;;;;;5138055;27;20069;-80
2022/01/02 05:52:08;;;;;;;20.38;6.47;;;;;;;;;;5119456;27;20463;-80
2022/01/02 05:54:35;;;;;;;17.63;6.20;;;;;;;;;;5136626;27;20043;-81
2022/01/02 05:57:01;;;;;;;17.25;5.75;;;;;;;;;;5101182;27;20043;-81
2022/01/02 05:59:27;;;;;;;16.48;6.10;;;;;;;;;;5135773;27;20130;-81
2022/01/02 06:01:54;;;;;;;19.80;6.13;;;;;;;;;;5136360;27;20078;-82
2022/01/02 06:04:20;;;;;;;17.45;5.88;;;;;;;;;;5118337;27;20130;-80
2022/01/02 06:06:46;;;;;;;20.75;5.72;;;;;;;;;;5118168;27;20039;-80
2022/01/02 06:09:12;;;;;;;17.50;5.28;;;;;;;;;;5100894;27;20648;-80
2022/01/02 06:11:38;;;;;;;14.98;5.00;;;;;;;;;;5136281;27;20088;-79
2022/01/02 06:14:04;;;;;;;15.13;4.88;;;;;;;;;;5100645;27;20479;-80
2022/01/02 06:16:32;;;;;;;14.43;4.85;;;;;;;;;;5136325;27;20476;-80
2022/01/02 06:18:58;;;;;;;14.80;4.50;;;;;;;;;;5136226;27;20047;-79
2022/01/02 06:21:24;;;;;;;15.02;4.57;;;;;;;;;;5118127;27;20452;-80
2022/01/02 06:23:50;;;;;;;18.98;4.53;;;;;;;;;;5136471;27;20039;-80
2022/01/02 06:26:16;;;;;;;15.52;5.05;;;;;;;;;;5136313;27;20127;-80
2022/01/02 06:28:42;;;;;;;16.70;5.05;;;;;;;;;;5136109;27;20184;-79
2022/01/02 06:31:09;;;;;;;14.20;3.92;;;;;;;;;;5136060;27;20043;-79
2022/01/02 06:33:35;;;;;;;13.48;3.88;;;;;;;;;;5135752;27;20388;-81
2022/01/02 06:36:01;;;;;;;13.18;3.90;;;;;;;;;;5135732;27;20045;-80
2022/01/02 06:38:28;;;;;;;16.13;3.85;;;;;;;;;;5117638;27;20047;-79
2022/01/02 06:40:54;;;;;;;17.02;4.05;;;;;;;;;;5135444;27;20511;-81
2022/01/02 06:43:20;;;;;;;11.73;3.97;;;;;;;;;;5117283;27;20125;-79
2022/01/02 06:45:47;;;;;;;14.25;3.85;;;;;;;;;;5135673;27;20043;-79
2022/01/02 06:48:13;;;;;;;14.98;4.38;;;;;;;;;;5135762;27;20385;-80
2022/01/02 06:50:39;;;;;;;15.32;4.22;;;;;;;;;;5135604;27;20043;-80
2022/01/02 06:53:06;;;;;;;17.42;3.90;;;;;;;;;;5117216;27;20035;-79
2022/01/02 06:55:32;;;;;;;15.82;4.65;;;;;;;;;;5116914;27;20035;-79
2022/01/02 06:57:58;;;;;;;11.77;3.92;;;;;;;;;;5116675;27;20082;-80
2022/01/02 07:00:25;;;;;;;13.40;3.90;;;;;;;;;;5099764;27;20503;-80
2022/01/02 07:02:51;;;;;;;13.30;3.90;;;;;;;;;;5135332;27;20485;-80
2022/01/02 07:05:18;;;;;;;11.02;4.30;;;;;;;;;;5135566;27;20043;-80
2022/01/02 07:07:44;;;;;;;15.48;4.35;;;;;;;;;;5135664;27;20049;-79
2022/01/02 07:10:13;;;;;;;12.32;4.05;;;;;;;;;;5134243;27;20083;-79
2022/01/02 07:12:40;;;;;;;10.20;4.03;;;;;;;;;;5116741;27;20472;-80
2022/01/02 07:15:06;;;;;;;13.90;4.13;;;;;;;;;;5135198;27;20404;-80
2022/01/02 07:17:32;;;;;;;12.50;4.35;;;;;;;;;;5134721;27;20035;-80
2022/01/02 07:19:59;;;;;;;15.98;4.90;;;;;;;;;;5134936;27;20373;-80
2022/01/02 07:22:25;;;;;;;12.98;4.47;;;;;;;;;;5134633;27;20039;-79
2022/01/02 07:24:51;;;;;;;11.32;4.40;;;;;;;;;;5134758;27;20046;-78
2022/01/02 07:27:21;;;;;;;15.95;4.70;;;;;;;;;;5134721;27;20051;-80
2022/01/02 07:29:51;;;;;;;12.73;4.72;;;;;;;;;;5134775;27;20369;-80
2022/01/02 07:32:18;;;;;;;17.17;4.55;;;;;;;;;;5134784;27;20472;-79
2022/01/02 07:34:44;;;;;;;12.93;5.00;;;;;;;;;;5116442;27;20135;-79
2022/01/02 07:37:11;;;;;;;14.50;4.68;;;;;;;;;;5134532;27;20080;-79
2022/01/02 07:39:37;;;;;;;11.75;4.80;;;;;;;;;;5134246;27;20536;-80
2022/01/02 07:42:03;;;;;;;13.82;5.03;;;;;;;;;;5134479;27;20072;-79
2022/01/02 07:44:29;;;;;;;12.57;4.78;;;;;;;;;;5098874;27;20043;-80
2022/01/02 07:46:56;;;;;;;13.75;5.15;;;;;;;;;;5116055;27;20046;-81
2022/01/02 07:49:22;;;;;;;13.77;5.20;;;;;;;;;;5115878;27;20050;-80
2022/01/02 07:51:48;;;;;;;12.02;5.10;;;;;;;;;;5134208;27;20369;-78
2022/01/02 07:54:14;;;;;;;12.77;4.35;;;;;;;;;;5099135;27;20126;-80
2022/01/02 07:56:41;;;;;;;15.18;5.05;;;;;;;;;;5115838;27;20418;-80
2022/01/02 07:59:08;;;;;;;12.43;4.97;;;;;;;;;;5133997;27;20039;-79
2022/01/02 08:01:34;;;;;;;12.57;5.25;;;;;;;;;;5116036;27;20140;-79
2022/01/02 08:04:02;;;;;;;11.52;5.20;;;;;;;;;;5133979;27;20164;-80
2022/01/02 08:06:28;;;;;;;14.57;5.10;;;;;;;;;;5115547;27;20175;-79
2022/01/02 08:08:54;;;;;;;16.75;5.53;;;;;;;;;;5098700;27;20047;-80
2022/01/02 08:11:21;;;;;;;13.55;5.40;;;;;;;;;;5115606;27;20047;-80
2022/01/02 08:13:48;;;;;;;15.68;5.30;;;;;;;;;;5098627;27;20412;-79
2022/01/02 08:16:14;;;;;;;12.32;5.22;;;;;;;;;;5114814;27;20043;-79
2022/01/02 08:18:41;;;;;;;13.23;4.55;;;;;;;;;;5114497;27;20130;-80
2022/01/02 08:21:07;;;;;;;11.80;4.65;;;;;;;;;;5133077;27;20084;-81
2022/01/02 08:23:34;;;;;;;12.73;4.85;;;;;;;;;;5115074;27;20428;-80
2022/01/02 08:26:00;;;;;;;13.75;5.20;;;;;;;;;;5133763;27;20050;-81
2022/01/02 08:28:26;;;;;;;13.82;5.22;;;;;;;;;;5098607;27;20052;-79
2022/01/02 08:30:52;;;;;;;12.70;4.68;;;;;;;;;;5115262;28;20082;-81
2022/01/02 08:33:18;;;;;;;11.48;4.30;;;;;;;;;;5133632;27;20122;-81
2022/01/02 08:35:45;;;;;;;12.55;4.43;;;;;;;;;;5115736;27;20047;-80
2022/01/02 08:38:12;;;;;;;14.00;4.45;;;;;;;;;;5115635;27;20051;-81
2022/01/02 08:40:38;;;;;;;13.18;3.92;;;;;;;;;;5133357;27;20456;-80
2022/01/02 08:43:05;;;;;;;10.82;4.60;;;;;;;;;;5115200;28;20074;-81
2022/01/02 08:45:31;;;;;;;14.57;4.95;;;;;;;;;;5133522;28;20047;-80
2022/01/02 08:47:57;;;;;;;11.63;4.47;;;;;;;;;;5115224;28;20047;-79
2022/01/02 08:50:24;;;;;;;14.52;4.82;;;;;;;;;;5115512;28;20075;-80
2022/01/02 08:52:50;;;;;;;10.70;4.80;;;;;;;;;;5133813;28;20043;-80
2022/01/02 08:55:16;;;;;;;12.55;4.72;;;;;;;;;;5115148;28;20189;-79
2022/01/02 08:57:42;;;;;;;13.10;4.53;;;;;;;;;;5114977;28;20047;-80
2022/01/02 09:00:09;;;;;;;13.23;4.75;;;;;;;;;;5133495;28;20133;-81
2022/01/02 09:02:35;;;;;;;10.25;4.47;;;;;;;;;;5133108;28;20183;-80
2022/01/02 09:05:02;;;;;;;14.23;4.60;;;;;;;;;;5114861;28;20544;-79
2022/01/02 09:07:28;;;;;;;13.15;4.80;;;;;;;;;;5133302;28;20403;-81
2022/01/02 09:09:54;;;;;;;13.27;4.00;;;;;;;;;;5133636;28;20054;-81
2022/01/02 09:12:20;;;;;;;11.35;4.72;;;;;;;;;;5133232;28;20162;-81
2022/01/02 09:14:46;;;;;;;10.10;4.65;;;;;;;;;;5133127;28;20047;-80
2022/01/02 09:17:12;;;;;;;12.65;4.25;;;;;;;;;;5132951;28;20439;-80
2022/01/02 09:19:38;;;;;;;15.10;4.70;;;;;;;;;;5114584;28;20083;-81
2022/01/02 09:22:05;;;;;;;12.73;4.18;;;;;;;;;;5115201;28;20050;-79
2022/01/02 09:24:31;;;;;;;13.32;4.85;;;;;;;;;;5098047;28;20047;-80
2022/01/02 09:26:58;;;;;;;11.68;4.18;;;;;;;;;;5133272;28;20091;-80
2022/01/02 09:29:24;;;;;;;11.35;3.95;;;;;;;;;;5133120;28;20384;-79
2022/01/02 09:31:51;;;;;;;10.13;4.00;;;;;;;;;;5133139;28;20074;-80
2022/01/02 09:34:17;;;;;;;9.50;4.20;;;;;;;;;;5117618;27;20130;-80
2022/01/02 09:36:43;;;;;;;11.55;4.63;;;;;;;;;;5118516;27;20101;-80
2022/01/02 09:39:09;;;;;;;11.77;3.92;;;;;;;;;;5136871;27;20047;-78
2022/01/02 09:41:35;;;;;;;13.05;4.05;;;;;;;;;;5136821;27;20043;-80
2022/01/02 09:44:02;;;;;;;13.25;3.83;;;;;;;;;;5118234;27;20096;-80
2022/01/02 09:46:29;;;;;;;9.30;3.72;;;;;;;;;;5101550;27;20054;-79
2022/01/02 09:48:55;;;;;;;10.52;4.10;;;;;;;;;;5118518;27;20035;-80
2022/01/02 09:51:26;;;;;;;9.10;4.10;;;;;;;;;;5118412;27;20518;-79
2022/01/02 09:53:56;;;;;;;8.57;3.65;;;;;;;;;;5118597;27;20047;-79
2022/01/02 09:56:23;;;;;;;9.55;3.85;;;;;;;;;;5136437;27;20118;-80
2022/01/02 09:58:49;;;;;;;11.35;4.00;;;;;;;;;;5136357;27;20160;-79
2022/01/02 10:01:16;;;;;;;11.43;4.07;;;;;;;;;;5135881;27;20051;-80
2022/01/02 10:03:46;;;;;;;12.43;4.25;;;;;;;;;;5136568;27;20444;-79
2022/01/02 10:06:13;;;;;;;11.38;3.80;;;;;;;;;;5136597;27;20050;-76
2022/01/02 10:08:39;;;;;;;12.38;4.30;;;;;;;;;;5118370;27;20125;-78
2022/01/02 10:11:09;;;;;;;14.45;4.22;;;;;;;;;;5136428;27;20039;-79
2022/01/02 10:13:40;;;;;;;10.10;4.20;;;;;;;;;;5136301;27;20039;-80
2022/01/02 10:16:18;;;;;;;10.50;4.03;;;;;;;;;;5118027;27;20285;-79
2022/01/02 10:18:45;;;;;;;9.88;4.18;;;;;;;;;;5117539;27;20454;-80
2022/01/02 10:21:11;;;;;;;10.70;4.38;;;;;;;;;;5136170;27;20126;-80
2022/01/02 10:23:37;;;;;;;12.27;4.30;;;;;;;;;;5100866;27;20511;-79
2022/01/02 10:26:04;;;;;;;15.45;4.45;;;;;;;;;;5117751;27;20090;-81
2022/01/02 10:28:30;;;;;;;10.57;4.70;;;;;;;;;;5117942;27;20108;-79
2022/01/02 10:30:56;;;;;;;9.02;4.20;;;;;;;;;;5117673;27;20092;-80
2022/01/02 10:33:22;;;;;;;10.05;4.20;;;;;;;;;;5117935;27;20043;-81
2022/01/02 10:35:55;;;;;;;13.35;4.78;;;;;;;;;;5116927;27;20127;-81
2022/01/02 10:38:22;;;;;;;11.48;4.22;;;;;;;;;;5117713;27;20092;-76
2022/01/02 10:40:48;;;;;;;11.27;4.07;;;;;;;;;;5135410;27;20122;-80
2022/01/02 10:43:28;;;;;;;10.75;4.72;;;;;;;;;;5117644;27;20109;-79
2022/01/02 10:45:55;;;;;;;18.55;4.95;;;;;;;;;;5114961;27;20399;-74
2022/01/02 10:48:31;;;;;;;15.48;4.68;;;;;;;;;;5116898;27;20384;-74
2022/01/02 10:51:05;;;;;;;17.95;5.57;;;;;;;;;;5135425;27;20046;-76
2022/01/02 10:53:34;;;;;;;14.55;4.60;;;;;;;;;;5079571;28;20045;-76
2022/01/02 10:56:01;;;;;;;13.25;4.60;;;;;;;;;;5114694;28;20040;-76
2022/01/02 10:58:28;;;;;;;10.35;4.65;;;;;;;;;;5096764;28;20160;-74
2022/01/02 11:00:56;;;;;;;11.25;4.65;;;;;;;;;;5096140;28;20058;-77
2022/01/02 11:03:25;;;;;;;11.85;5.00;;;;;;;;;;5080830;27;20047;-75
2022/01/02 11:05:56;;;;;;;12.00;4.97;;;;;;;;;;5135023;27;20057;-72
2022/01/02 11:08:24;;;;;;;10.95;4.88;;;;;;;;;;5117010;27;20410;-75
2022/01/02 11:10:51;;;;;;;17.80;4.80;;;;;;;;;;5135289;27;20099;-77
2022/01/02 11:13:18;;;;;;;11.25;5.25;;;;;;;;;;5135209;27;20043;-76
2022/01/02 11:15:45;;;;;;;13.43;4.47;;;;;;;;;;5099770;27;20129;-77
2022/01/02 11:18:12;;;;;;;9.00;4.53;;;;;;;;;;5082887;27;20058;-77
2022/01/02 11:20:39;;;;;;;9.77;5.05;;;;;;;;;;5116200;27;20047;-76
2022/01/02 11:23:08;;;;;;;11.02;5.50;;;;;;;;;;5116696;27;20050;-76
2022/01/02 11:25:40;;;;;;;14.27;5.00;;;;;;;;;;5116215;27;20537;-73
2022/01/02 11:28:10;;;;;;;10.25;5.18;;;;;;;;;;5134568;27;20092;-77
2022/01/02 11:30:37;;;;;;;9.73;5.05;;;;;;;;;;5116164;27;20046;-75
2022/01/02 11:33:19;;;;;;;10.38;4.70;;;;;;;;;;5134378;27;20065;-71
2022/01/02 11:35:47;;;;;;;10.88;4.82;;;;;;;;;;5116064;27;20054;-76
2022/01/02 11:38:15;;;;;;;12.18;5.18;;;;;;;;;;5115839;27;20054;-77
2022/01/02 11:40:47;;;;;;;12.02;5.10;;;;;;;;;;5134203;27;20035;-78
2022/01/02 11:43:32;;;;;;;13.63;4.90;;;;;;;;;;5116242;27;20074;-80
2022/01/02 11:46:17;;;;;;;12.88;5.35;;;;;;;;;;5134884;27;20456;-81
2022/01/02 11:48:43;;;;;;;11.57;4.97;;;;;;;;;;5116594;27;20447;-80
2022/01/02 11:51:09;;;;;;;11.73;4.85;;;;;;;;;;5116312;27;20551;-80
2022/01/02 11:53:35;;;;;;;11.90;5.50;;;;;;;;;;5134373;27;20039;-79
2022/01/02 11:56:02;;;;;;;12.00;4.60;;;;;;;;;;5115442;27;20035;-80
2022/01/02 11:58:44;;;;;;;10.73;4.75;;;;;;;;;;5116140;27;20047;-79
2022/01/02 12:01:11;;;;;;;13.80;5.10;;;;;;;;;;5134223;27;20046;-81
2022/01/02 12:03:44;;;;;;;12.82;4.60;;;;;;;;;;5134358;27;20126;-82
2022/01/02 12:06:15;;;;;;;12.98;4.78;;;;;;;;;;5134236;27;20039;-80
2022/01/02 12:08:42;;;;;;;13.55;4.47;;;;;;;;;;5115913;27;20049;-80
2022/01/02 12:11:26;;;;;;;10.80;4.38;;;;;;;;;;5115790;27;20500;-80
2022/01/02 12:14:02;;;;;;;13.48;4.68;;;;;;;;;;5115773;27;20476;-79
2022/01/02 12:16:35;;;;;;;12.85;4.88;;;;;;;;;;5133542;27;20046;-79
2022/01/02 12:19:03;;;;;;;13.43;3.78;;;;;;;;;;5134015;27;20043;-81
2022/01/02 12:21:31;;;;;;;12.43;3.95;;;;;;;;;;5133677;27;20042;-80
2022/01/02 12:23:57;;;;;;;14.88;4.88;;;;;;;;;;5134113;27;20043;-76
2022/01/02 12:26:28;;;;;;;9.77;4.05;;;;;;;;;;5115698;27;20054;-80
2022/01/02 12:29:00;;;;;;;10.55;3.90;;;;;;;;;;5115582;27;20047;-80
2022/01/02 12:31:31;;;;;;;14.80;4.25;;;;;;;;;;5134053;27;20065;-80
2022/01/02 12:34:12;;;;;;;10.57;3.90;;;;;;;;;;5134136;27;20039;-78
2022/01/02 12:36:41;;;;;;;;;;;;;;;;;;5134195;27;20069;-80
2022/01/02 12:39:09;;;;;;;11.25;3.70;;;;;;;;;;5133821;27;19962;-81
2022/01/02 12:41:36;;;;;;;10.93;3.70;;;;;;;;;;5134009;27;20081;-80
2022/01/02 12:44:05;;;;;;;12.88;4.10;;;;;;;;;;5133748;27;20050;-78
2022/01/02 12:46:37;;;;;;;12.05;3.63;;;;;;;;;;5115623;28;20159;-79
2022/01/02 12:49:05;;;;;;;11.85;3.60;;;;;;;;;;5098634;28;20051;-78
2022/01/02 12:51:32;;;;;;;10.52;3.40;;;;;;;;;;5133562;28;20046;-78
2022/01/02 12:54:09;;;;;;;12.80;3.55;;;;;;;;;;5115670;28;20082;-79
2022/01/02 12:56:35;;;;;;;13.27;3.30;;;;;;;;;;5115476;28;20078;-78
2022/01/02 12:59:20;;;;;;;12.88;3.40;;;;;;;;;;5133786;28;20043;-79
2022/01/02 13:01:49;;;;;;;12.32;3.20;;;;;;;;;;5133409;28;20144;-79
2022/01/02 13:04:17;;;;;;;11.73;2.65;;;;;;;;;;5133472;28;20480;-80
2022/01/02 13:06:50;;;;;;;13.32;3.03;;;;;;;;;;5133433;27;20050;-79
2022/01/02 13:09:23;;;;;;;15.50;3.10;;;;;;;;;;5136729;27;20039;-79
2022/01/02 13:11:50;;;;;;;10.18;2.40;;;;;;;;;;5119254;27;20061;-80
2022/01/02 13:14:29;;;;;;;12.90;3.13;;;;;;;;;;5119092;27;20122;-79
2022/01/02 13:16:55;;;;;;;13.82;2.65;;;;;;;;;;5137259;27;20130;-79
2022/01/02 13:19:21;;;;;;;13.45;2.70;;;;;;;;;;5119169;27;20095;-80
2022/01/02 13:21:47;;;;;;;10.10;2.38;;;;;;;;;;5137531;27;20170;-80
2022/01/02 13:24:27;;;;;;;13.93;2.70;;;;;;;;;;5119566;27;20056;-79
2022/01/02 13:26:54;;;;;;;10.43;2.50;;;;;;;;;;5136419;27;20043;-79
2022/01/02 13:29:24;;;;;;;13.63;2.80;;;;;;;;;;5137462;27;20095;-78
2022/01/02 13:31:54;;;;;;;12.20;2.85;;;;;;;;;;5137369;27;20556;-79
2022/01/02 13:34:24;;;;;;;12.90;2.78;;;;;;;;;;5137313;27;20392;-79
2022/01/02 13:37:00;;;;;;;12.20;3.15;;;;;;;;;;5137152;27;20103;-80
2022/01/02 13:39:39;;;;;;;16.67;2.92;;;;;;;;;;5137231;27;20049;-81
2022/01/02 13:42:05;;;;;;;15.40;2.65;;;;;;;;;;5136982;27;20039;-79
2022/01/02 13:44:43;;;;;;;15.23;2.88;;;;;;;;;;5137071;27;20039;-80
2022/01/02 13:47:10;;;;;;;14.05;2.95;;;;;;;;;;5118939;27;20047;-79
2022/01/02 13:49:49;;;;;;;16.90;2.70;;;;;;;;;;5118473;27;20057;-80
2022/01/02 13:52:17;;;;;;;13.57;2.80;;;;;;;;;;5118739;27;20036;-78
2022/01/02 13:54:43;;;;;;;14.02;2.75;;;;;;;;;;5118792;27;20059;-80
2022/01/02 13:57:10;;;;;;;14.43;2.53;;;;;;;;;;5136623;27;20035;-79
2022/01/02 13:59:37;;;;;;;11.02;2.47;;;;;;;;;;5136575;27;20084;-78
2022/01/02 14:02:03;;;;;;;14.52;2.63;;;;;;;;;;5136599;27;20051;-81
2022/01/02 14:04:49;;;;;;;15.98;3.00;;;;;;;;;;5118456;27;20043;-80
2022/01/02 14:07:15;;;;;;;16.95;3.00;;;;;;;;;;5136424;27;20464;-79
2022/01/02 14:09:49;;;;;;;14.98;2.75;;;;;;;;;;5118351;27;20126;-78
2022/01/02 14:12:20;;;;;;;16.83;3.17;;;;;;;;;;5118260;27;20126;-79
2022/01/02 14:14:56;;;;;;;14.15;2.30;;;;;;;;;;5136412;27;20043;-79
2022/01/02 14:17:33;;;;;;;12.60;2.38;;;;;;;;;;5117894;27;20106;-78
2022/01/02 14:19:59;;;;;;;13.88;2.35;;;;;;;;;;5136136;27;20047;-79
2022/01/02 14:22:26;;;;;;;12.23;2.38;;;;;;;;;;5136552;27;20046;-78
2022/01/02 14:24:53;;;;;;;19.42;2.53;;;;;;;;;;5136169;27;20047;-80
2022/01/02 14:27:22;;;;;;;12.88;2.53;;;;;;;;;;5136010;27;20043;-78
2022/01/02 14:29:48;;;;;;;10.88;1.95;;;;;;;;;;5136081;27;20047;-80
2022/01/02 14:32:15;;;;;;;14.85;2.28;;;;;;;;;;5135552;27;20093;-78
2022/01/02 14:34:42;;;;;;;13.75;2.47;;;;;;;;;;5135573;27;20043;-79
2022/01/02 14:37:09;;;;;;;17.67;2.60;;;;;;;;;;5135284;27;20049;-80
2022/01/02 14:39:35;;;;;;;18.80;3.10;;;;;;;;;;5135992;27;20433;-80
2022/01/02 14:42:01;;;;;;;15.50;2.83;;;;;;;;;;5135555;27;20383;-79